CYTZ/YTZ METAR and TAF weather

Enter ICAO airport designator
Station Type Date Time Source
CYTZ METAR 2019/11/22 01:00 UTC NOAA

CYTZ 220100Z AUTO 17003KT 110V190 9SM BKN026 OVC033 06/05 A2970 RMK SLP063


Station Type Date Time Source
CYTZ Decoded METAR 2019/11/22 01:00 UTC NOAA

Toronto Island Airport Automated Reporting Station, Canada (CYTZ) 43-38N 079-24W
Nov 21, 2019 - 08:00 PM EST / 2019.11.22 0100 UTC
Wind: from the S (170 degrees) at 3 MPH (3 KT) (direction variable):0
Visibility: 9 mile(s):0
Sky conditions: overcast
Temperature: 42 F (6 C)
Dew Point: 41 F (5 C)
Relative Humidity: 93%
Pressure (altimeter): 29.7 in. Hg (1005 hPa)
ob: CYTZ 220100Z AUTO 17003KT 110V190 9SM BKN026 OVC033 06/05 A2970 RMK SLP063
cycle: 1

Station Type Date Time Source
CYTZ TAF 2019/11/21 20:42 UTC NOAA

TAF CYTZ 211938Z 2120/2220 15008KT P6SM -RA FEW025 SCT040 OVC080
BECMG 2122/2124 19012KT
FM220000 19012KT P6SM -RA SCT015 OVC030
TEMPO 2200/2202 5SM -RA BR OVC015
FM220200 22015KT 4SM -RA BR SCT008 OVC015
FM220400 22015KT 3SM -RA -DZ BR SCT006 OVC010
BECMG 2205/2207 24012G22KT
FM220900 26012G22KT P6SM -SHRA OVC020
FM221200 28015G25KT P6SM BKN030
BECMG 2212/2214 29020G30KT
BECMG 2218/2220 30012KT
RMK FCST BASED ON AUTO OBS. NXT FCST BY 220200Z

Example: see airport list